Flight Track Log - Related Links

Times and Time Zones

All times are in EDT time to prevent confusion due to time zone crossing. See the DAL2352 flight status page for this flight to view local times or setup timezone preferences in your user account.

Time Position Orientation Groundspeed Altitude Reporting Facility
EDT Latitude Longitude Course Direction KTS MPH feet Rate Location/Type
Sun 08:50:03 AM 33.6333 -84.4833 239° Southwest 197 227 2,500  Level Atlanta TRACON
Sun 08:50:58 AM 33.6000 -84.5500 239° Southwest 258 297 5,000 2,974 Climbing Atlanta TRACON
Sun 08:51:58 AM 33.5500 -84.5833 209° Southwest 294 338 8,200 2,744 Climbing Atlanta TRACON
Sun 08:53:07 AM 33.4672 -84.5631 168° South 291 335 10,900 2,538 Climbing Atlanta Center
Sun 08:54:08 AM 33.4558 -84.4281 96° East 363 418 13,700 2,146 Climbing Atlanta Center
Sun 08:55:10 AM 33.4583 -84.3033 89° East 378 435 15,300 2,177 Climbing Atlanta Center
Sun 08:56:12 AM 33.4972 -84.1786 69° East 410 472 18,200 2,129 Climbing Atlanta Center
Sun 08:57:14 AM 33.5467 -84.0603 63° Northeast 404 465 19,700 1,500 Climbing Atlanta Center
Sun 08:58:16 AM 33.5983 -83.9269 65° Northeast 451 519 21,300 1,790 Climbing Atlanta Center
Sun 08:59:18 AM 33.6375 -83.7597 74° East 460 529 23,400 1,742 Climbing Atlanta Center
Sun 09:00:20 AM 33.6675 -83.6119 76° East 456 525 24,900 1,306 Climbing Atlanta Center
Sun 09:01:22 AM 33.7247 -83.4714 64° Northeast 467 537 26,100 1,161 Climbing Atlanta Center
Sun 09:02:24 AM 33.7878 -83.3244 63° Northeast 490 564 27,300 1,171 Climbing Atlanta Center
Sun 09:03:25 AM 33.8467 -83.1778 64° Northeast 491 565 28,500 1,463 Climbing Atlanta Center
Sun 09:04:27 AM 33.9058 -83.0289 64° Northeast 492 566 30,300 1,597 Climbing Atlanta Center
Sun 09:05:29 AM 33.9756 -82.8544 64° Northeast 490 564 31,800 1,645 Climbing Atlanta Center
Sun 09:06:31 AM 34.0322 -82.7078 65° Northeast 488 562 33,700 1,075 Climbing Atlanta Center
Sun 09:11:42 AM 34.3468 -81.9644 65° Northeast 39,000 935 Climbing FlightAware ADS-B
Sun 09:12:11 AM 34.3800 -81.8984 59° Northeast 470 541 39,000  Level FlightAware ADS-B
Sun 09:12:56 AM 34.4306 -81.7975 59° Northeast 473 544 39,000  Level FlightAware ADS-B
Sun 09:13:33 AM 34.4593 -81.7401 59° Northeast 474 545 39,000  Level FlightAware ADS-B (EFYL / YLI)
Sun 09:14:13 AM 34.5177 -81.6225 59° Northeast 475 547 39,000  Level FlightAware ADS-B
Sun 09:14:57 AM 34.5667 -81.5237 59° Northeast 477 549 39,000  Level FlightAware ADS-B
Sun 09:15:40 AM 34.6036 -81.4492 59° Northeast 478 550 39,000  Level FlightAware ADS-B (EFYL / YLI)
Sun 09:16:13 AM 34.6534 -81.3484 59° Northeast 479 551 39,000  Level FlightAware ADS-B
Sun 09:16:54 AM 34.6995 -81.2547 59° Northeast 479 551 39,000  Level FlightAware ADS-B
Sun 09:17:28 AM 34.7385 -81.1752 59° Northeast 478 550 39,000  Level FlightAware ADS-B
Sun 09:18:08 AM 34.7822 -81.0862 59° Northeast 477 549 39,000  Level FlightAware ADS-B (EFYL / YLI)
Sun 09:18:52 AM 34.8251 -80.9983 59° Northeast 475 547 39,000  Level FlightAware ADS-B (EFYL / YLI)
Sun 09:19:24 AM 34.8653 -80.9160 59° Northeast 475 547 39,000  Level FlightAware ADS-B (EFYL / YLI)
Sun 09:21:16 AM 34.9927 -80.6535 60° Northeast 475 547 39,000  Level FlightAware ADS-B (NZFP)
Sun 09:21:57 AM 35.0385 -80.5587 60° Northeast 474 545 39,000  Level FlightAware ADS-B (EFYL / YLI)
Sun 09:22:59 AM 35.0932 -80.4449 60° Northeast 476 548 39,000  Level FlightAware ADS-B (EFYL / YLI)
Sun 09:23:41 AM 35.1494 -80.3277 60° Northeast 477 549 39,000  Level FlightAware ADS-B (EFYL / YLI)
Sun 09:24:21 AM 35.1985 -80.2251 60° Northeast 478 550 39,000  Level FlightAware ADS-B (EFYL / YLI)
Sun 09:24:56 AM 35.2383 -80.1415 60° Northeast 480 552 39,000  Level FlightAware ADS-B (NZFP)
Sun 09:25:27 AM 35.2722 -80.0704 60° Northeast 480 552 39,000  Level FlightAware ADS-B (NZFP)
Sun 09:25:57 AM 35.3018 -80.0080 60° Northeast 481 554 39,000  Level FlightAware ADS-B (NZFP)
Sun 09:26:41 AM 35.3540 -79.8978 60° Northeast 482 555 39,000  Level FlightAware ADS-B (NZFP)
Sun 09:27:11 AM 35.3882 -79.8255 60° Northeast 481 554 39,000  Level FlightAware ADS-B (NZFP)
Sun 09:27:42 AM 35.4224 -79.7529 60° Northeast 482 555 39,000  Level FlightAware ADS-B (NZFP)
Sun 09:28:21 AM 35.4642 -79.6639 60° Northeast 482 555 39,000  Level FlightAware ADS-B (EFYL / YLI)
Sun 09:29:01 AM 35.5099 -79.5665 60° Northeast 482 555 39,000  Level FlightAware ADS-B (EFYL / YLI)
Sun 09:29:56 AM 35.5667 -79.4450 60° Northeast 482 555 39,000  Level FlightAware ADS-B (NZFP)
Sun 09:30:38 AM 35.6161 -79.3389 60° Northeast 482 555 39,000  Level FlightAware ADS-B (EFYL / YLI)
Sun 09:31:22 AM 35.6619 -79.2404 60° Northeast 484 557 39,000  Level FlightAware ADS-B (EFYL / YLI)
Sun 09:31:56 AM 35.6990 -79.1604 61° Northeast 485 558 39,000  Level FlightAware ADS-B (EFYL / YLI)
Sun 09:32:41 AM 35.7522 -79.0450 61° Northeast 486 559 39,000  Level FlightAware ADS-B (EFYL / YLI)
Sun 09:33:27 AM 35.8022 -78.9367 61° Northeast 487 560 39,000  Level FlightAware ADS-B (EFYL / YLI)
Sun 09:34:30 AM 35.8669 -78.7818 78° East 503 579 39,000  Level FlightAware ADS-B (EFYL / YLI)
Sun 09:35:22 AM 35.8891 -78.6310 83° East 509 586 39,000  Level FlightAware ADS-B (EFYL / YLI)
Sun 09:36:00 AM 35.8996 -78.5195 84° East 509 586 39,000  Level FlightAware ADS-B (EFYL / YLI)
Sun 09:36:41 AM 35.9183 -78.3200 84° East 509 586 39,000  Level FlightAware ADS-B (KWWD)
Sun 09:37:52 AM 35.9379 -78.1156 84° East 510 587 39,000  Level FlightAware ADS-B (KWWD)
Sun 09:43:11 AM 36.2151 -77.3184 54° Northeast 468 539 39,000  Level FlightAware ADS-B (KWWD)
Sun 09:43:52 AM 36.2692 -77.2304 54° Northeast 466 536 39,000  Level FlightAware ADS-B (KWWD)
Sun 09:44:36 AM 36.3267 -77.1366 54° Northeast 464 534 39,000  Level FlightAware ADS-B (KWWD)
Sun 09:45:34 AM 36.4033 -77.0111 54° Northeast 462 532 39,000  Level FlightAware ADS-B (KWWD)
Sun 09:46:18 AM 36.4599 -76.9182 54° Northeast 462 532 39,000  Level FlightAware ADS-B (KWWD)
Sun 09:47:08 AM 36.5257 -76.8097 54° Northeast 463 533 39,000  Level FlightAware ADS-B (KWWD)
Sun 09:48:38 AM 36.6417 -76.6178 54° Northeast 463 533 39,000  Level FlightAware ADS-B (KWWD)
Sun 09:49:54 AM 36.7394 -76.4551 54° Northeast 462 532 39,000  Level FlightAware ADS-B (KWWD)
Sun 09:50:30 AM 36.7865 -76.3767 54° Northeast 462 532 39,000  Level FlightAware ADS-B (KWWD)
Sun 09:51:20 AM 36.8505 -76.2696 54° Northeast 463 533 39,000  Level FlightAware ADS-B (KWWD)
Sun 09:51:46 AM 36.8873 -76.2169 38° Northeast 447 514 39,000  Level FlightAware ADS-B (KWWD)
Sun 09:52:13 AM 36.9324 -76.1793 27° Northeast 435 501 39,000  Level FlightAware ADS-B (KWWD)
Sun 09:52:44 AM 36.9885 -76.1485 24° Northeast 423 487 39,000  Level FlightAware ADS-B (KWWD)
Sun 09:53:22 AM 37.0587 -76.1115 23° Northeast 422 486 39,000  Level FlightAware ADS-B (KWWD)
Sun 09:53:53 AM 37.1166 -76.0811 23° Northeast 422 486 39,000  Level FlightAware ADS-B (KWWD)
Sun 09:54:23 AM 37.1714 -76.0520 24° Northeast 423 487 39,000  Level FlightAware ADS-B (KWWD)
Sun 09:55:13 AM 37.2628 -76.0032 24° Northeast 425 489 39,000  Level FlightAware ADS-B (KWWD)
Sun 09:55:49 AM 37.3291 -75.9676 24° Northeast 424 488 39,000  Level FlightAware ADS-B (KWWD)
Sun 09:56:23 AM 37.3900 -75.9350 24° Northeast 423 487 39,000  Level FlightAware ADS-B (KWWD)
Sun 09:56:54 AM 37.4473 -75.9043 24° Northeast 422 486 39,000  Level FlightAware ADS-B (KWWD)
Sun 09:57:25 AM 37.5047 -75.8732 24° Northeast 423 487 39,000  Level FlightAware ADS-B (KWWD)
Sun 09:58:04 AM 37.5744 -75.8275 31° Northeast 429 494 39,000  Level FlightAware ADS-B (KWWD)
Sun 09:58:35 AM 37.6275 -75.7880 31° Northeast 431 496 39,000  Level FlightAware ADS-B (KWWD)
Sun 09:59:15 AM 37.6970 -75.7356 32° Northeast 431 496 39,000  Level FlightAware ADS-B (KWWD)
Sun 10:00:04 AM 37.7823 -75.6711 31° Northeast 435 501 39,000  Level FlightAware ADS-B (KWWD)
Sun 10:00:45 AM 37.8523 -75.6184 31° Northeast 432 497 39,000  Level FlightAware ADS-B (KWWD)
Sun 10:01:15 AM 37.9041 -75.5794 31° Northeast 432 497 39,000  Level FlightAware ADS-B (KWWD)
Sun 10:01:49 AM 37.9052 -75.5787 31° Northeast 431 496 39,000  Level FlightAware ADS-B (EGAA / BFS)
Sun 10:02:19 AM 37.9625 -75.5353 31° Northeast 432 497 39,000  Level FlightAware ADS-B (EGAA / BFS)
Sun 10:03:07 AM 38.0256 -75.4874 30° Northeast 430 495 39,000  Level FlightAware ADS-B (EGAA / BFS)
Sun 10:03:13 AM 38.0136 -75.4965 30° Northeast 430 495 39,000  Level FlightAware ADS-B
Sun 10:03:52 AM 38.1181 -75.4249 27° Northeast 426 490 39,000  Level FlightAware ADS-B (EGAA / BFS)
Sun 10:04:32 AM 38.1945 -75.3767 26° Northeast 425 489 39,000  Level FlightAware ADS-B (EGAA / BFS)
Sun 10:05:11 AM 38.2641 -75.3330 27° Northeast 426 490 39,000  Level FlightAware ADS-B (KPHL)
Sun 10:05:47 AM 38.3070 -75.3058 27° Northeast 425 489 39,000 -358 Level FlightAware ADS-B (EGAA / BFS)
Sun 10:06:18 AM 38.3794 -75.2598 27° Northeast 426 490 38,600 -1,065 Descending FlightAware ADS-B (EGAA / BFS)
Sun 10:06:49 AM 38.4054 -75.2433 27° Northeast 429 494 37,900 -1,522 Descending FlightAware ADS-B (EGAA / BFS)
Sun 10:07:25 AM 38.4926 -75.1879 27° Northeast 441 507 36,900 -1,457 Descending FlightAware ADS-B (EGAA / BFS)
Sun 10:07:59 AM 38.5622 -75.1434 27° Northeast 442 509 36,200 -1,397 Descending FlightAware ADS-B (KPHL)
Sun 10:08:38 AM 38.6888 -75.0624 27° Northeast 438 504 35,200 -943 Descending FlightAware ADS-B (KWWD)
Sun 10:09:09 AM 38.6816 -75.0670 27° Northeast 445 512 35,100 -118 Descending FlightAware ADS-B (KPHL)
Sun 10:10:20 AM 38.8192 -74.9788 27° Northeast 441 507 35,000 -48 Descending FlightAware ADS-B (KPHL)
Sun 10:11:15 AM 38.9234 -74.9117 27° Northeast 441 507 35,000 -313 Level FlightAware ADS-B (KPHL)
Sun 10:11:56 AM 39.0502 -74.8295 28° Northeast 435 501 34,500 -1,533 Descending FlightAware ADS-B (KWWD)
Sun 10:12:45 AM 39.1332 -74.7598 39° Northeast 433 498 32,700 -2,660 Descending FlightAware ADS-B (KWWD)
Sun 10:13:33 AM 39.2088 -74.6786 40° Northeast 442 509 30,200 -3,308 Descending FlightAware ADS-B (KWWD)
Sun 10:14:03 AM 39.2551 -74.6279 40° Northeast 443 510 28,400 -3,452 Descending FlightAware ADS-B (KWWD)
Sun 10:14:46 AM 39.3232 -74.5536 40° Northeast 439 505 26,000 -2,118 Descending FlightAware ADS-B (KWWD)
Sun 10:15:28 AM 39.2514 -74.6320 40° Northeast 443 510 25,400 -2,752 Descending FlightAware ADS-B
Sun 10:16:35 AM 39.4873 -74.3750 40° Northeast 421 484 21,000 -2,777 Descending FlightAware ADS-B (KWWD)
Sun 10:17:29 AM 39.5257 -74.3331 40° Northeast 418 481 19,800 -1,858 Descending FlightAware ADS-B (KPHL)
Sun 10:18:28 AM 39.6152 -74.2421 35° Northeast 414 476 17,500 -2,400 Descending FlightAware ADS-B (KPHL)
Sun 10:19:04 AM 39.7146 -74.1505 37° Northeast 399 459 16,000 -2,239 Descending FlightAware ADS-B (KWWD)
Sun 10:19:35 AM 39.7617 -74.1057 36° Northeast 396 456 15,000 -1,395 Descending FlightAware ADS-B (KWWD)
Sun 10:20:30 AM 39.7968 -74.0721 37° Northeast 388 447 14,000 -1,326 Descending FlightAware ADS-B (KPHL)
Sun 10:22:27 AM 39.9573 -73.9184 36° Northeast 309 356 11,200 -1,094 Descending FlightAware ADS-B (KPHL)
Sun 10:23:31 AM 40.0266 -73.8588 36° Northeast 283 326 10,700 -793 Descending FlightAware ADS-B (KPHL)
Sun 10:24:28 AM 40.1250 -73.7930 28° Northeast 276 318 9,600 -1,263 Descending FlightAware ADS-B (KWWD)
Sun 10:24:47 AM 40.1474 -73.7783 28° Northeast 276 318 9,100 -1,579 Descending FlightAware ADS-B (KWWD)
Sun 10:25:06 AM 40.1701 -73.7634 28° Northeast 274 315 8,600 -407 Descending FlightAware ADS-B (KWWD)
Sun 10:25:46 AM 40.1833 -73.7500 28° Northeast 282 325 8,700 -815 Climbing New York TRACON
Sun 10:26:27 AM 40.2247 -73.7258 24° Northeast 274 315 7,500 -1,398 Descending New York Center
Sun 10:27:29 AM 40.2881 -73.6850 26° Northeast 274 315 6,300 -1,200 Descending New York Center
Sun 10:28:27 AM 40.3622 -73.6364 27° Northeast 269 310 5,100 -1,271 Descending New York Center
Sun 10:29:27 AM 40.4256 -73.6119 16° North 264 304 3,800 -1,279 Descending New York Center
Sun 10:30:29 AM 40.5025 -73.6150 358° North 253 291 2,500 -885 Descending New York Center
Sun 10:31:29 AM 40.5708 -73.6342 348° North 253 291 2,000 -559 Descending New York Center
Sun 10:32:27 AM 40.6069 -73.6850 313° West 207 238 1,400 -706 Descending New York Center
Sun 10:33:28 AM 40.6308 -73.7325 304° West 182 209 600 -492 Descending New York Center
Sun 10:34:29 AM 40.6586 -73.7883 303° West 175 201 400 -197 Descending New York Center

Login

Don't have an account? Register now (free) for customized features, flight alerts, and more!